Data for 06/01/2007

Time Sea-Level Adjusted Pressure Absolute Pressure Temperature Relative Humidity Dew Point   
(mb) (inHg) (mb) (inHg) (C) (F) (%) (C) (F)
00:05 1018 30.06 848 25.04 10.6 51.1 64 4.1 39.3
00:10 1018 30.06 848 25.04 10.4 50.7 64 4 39.2
00:15 1018 30.06 847 25.01 10.4 50.8 63 3.8 38.8
00:20 1018 30.06 847 25.01 10.5 50.9 63 3.7 38.7
00:25 1018 30.06 847 25.01 10.5 51 62 3.7 38.6
00:30 1018 30.06 847 25.01 10.4 50.8 63 3.6 38.6
00:35 1018 30.06 847 25.01 10.5 50.9 60 3.2 37.8
00:40 1018 30.06 847 25.01 10.6 51 61 3.4 38.2
00:45 1018 30.06 847 25.01 10.4 50.8 61 3.3 38
00:50 1018 30.06 847 25.01 10.4 50.6 61 3.2 37.7
00:55 1018 30.06 847 25.01 10.5 50.9 60 3.1 37.6
01:00 1018 30.06 847 25.01 10.4 50.7 60 3 37.4
01:05 1018 30.06 847 25.01 10.5 50.9 59 2.9 37.3
01:10 1018 30.06 847 25.01 10.2 50.3 60 2.8 37
01:15 1018 30.06 847 25.01 10.1 50.2 61 3 37.4
01:20 1018 30.06 847 25.01 10 50 60 2.7 36.9
01:25 1018 30.06 847 25.01 10.4 50.7 58 2.6 36.7
01:30 1018 30.06 847 25.01 10.5 50.8 59 2.9 37.2
01:35 1018 30.06 847 25.01 10.1 50.1 61 2.8 37.1
01:40 1018 30.06 847 25.01 9.8 49.7 61 2.7 36.9
01:45 1018 30.06 847 25.01 9.6 49.2 61 2.5 36.5
01:50 1018 30.06 847 25.01 9.6 49.3 61 2.4 36.4
01:55 1018 30.06 847 25.01 9.5 49.1 63 2.8 37.1
02:00 1018 30.06 847 25.01 9.1 48.3 64 2.8 37
02:05 1018 30.06 847 25.01 9 48.2 63 2.4 36.4
02:10 1018 30.06 847 25.01 9.2 48.5 63 2.4 36.4
02:15 1018 30.06 847 25.01 9.3 48.7 62 2.4 36.3
02:20 1018 30.06 847 25.01 9.3 48.7 64 2.8 37
02:25 1018 30.06 847 25.01 8.9 47.9 65 2.6 36.7
02:30 1018 30.06 847 25.01 8.6 47.4 65 2.4 36.4
02:35 1018 30.06 847 25.01 8.6 47.5 65 2.3 36.2
02:40 1018 30.06 847 25.01 8.6 47.5 65 2.4 36.4
02:45 1018 30.06 847 25.01 8.5 47.3 66 2.5 36.5
02:50 1018 30.06 847 25.01 8.4 47.2 66 2.6 36.6
02:55 1018 30.06 847 25.01 8.7 47.6 65 2.4 36.4
03:00 1018 30.06 847 25.01 8.8 47.9 63 2.2 36
03:05 1018 30.06 847 25.01 9 48.1 63 2.3 36.2
03:10 1018 30.06 847 25.01 8.9 48 62 2.1 35.7
03:15 1018 30.06 847 25.01 9.1 48.4 61 2.1 35.7
03:20 1018 30.06 847 25.01 9.1 48.5 63 2.5 36.5
03:25 1018 30.06 847 25.01 8.7 47.6 66 2.6 36.7
03:30 1018 30.06 847 25.01 8 46.5 68 2.5 36.5
03:35 1018 30.06 847 25.01 7.7 45.8 70 2.6 36.6
03:40 1018 30.06 847 25.01 7.4 45.4 70 2.4 36.2
03:45 1018 30.06 847 25.01 7.3 45.1 71 2.5 36.4
03:50 1018 30.06 847 25.01 7 44.5 73 2.5 36.5
03:55 1018 30.06 847 25.01 7 44.5 72 2.2 36
04:00 1018 30.06 847 25.01 7.4 45.3 69 2 35.7
04:05 1018 30.06 847 25.01 7.8 46 67 2.1 35.8
04:10 1018 30.06 847 25.01 7.8 46 68 2.2 35.9
04:15 1018 30.06 847 25.01 7.8 46 69 2.4 36.3
04:20 1018 30.06 847 25.01 7.5 45.4 70 2.3 36.2
04:25 1018 30.06 847 25.01 7.3 45.2 71 2.4 36.4
04:30 1018 30.06 847 25.01 7.4 45.3 70 2.2 36
04:35 1018 30.06 847 25.01 7.4 45.3 69 2.2 35.9
04:40 1018 30.06 847 25.01 7.4 45.3 68 2 35.5
04:45 1018 30.06 847 25.01 7.6 45.8 67 1.9 35.5
04:50 1018 30.06 847 25.01 7.9 46.2 66 2.1 35.7
04:55 1018 30.06 847 25.01 8 46.3 67 2.2 36
05:00 1018 30.06 847 25.01 7.8 46.1 68 2.3 36.2
05:05 1018 30.06 847 25.01 7.5 45.5 70 2.4 36.3
05:10 1018 30.06 847 25.01 7.7 45.8 68 2.1 35.7
05:15 1018 30.06 847 25.01 7.5 45.5 70 2.4 36.3
05:20 1018 30.06 847 25.01 7.2 45 72 2.4 36.4
05:25 1018 30.06 847 25.01 6.9 44.4 73 2.3 36.2
05:30 1018 30.06 847 25.01 7 44.6 72 2.4 36.3
05:35 1018 30.06 847 25.01 6.8 44.3 73 2.4 36.3
05:40 1018 30.06 847 25.01 6.9 44.3 73 2.3 36.1
05:45 1018 30.06 847 25.01 6.9 44.5 73 2.5 36.5
05:50 1018 30.06 847 25.01 6.7 44.1 74 2.4 36.3
05:55 1018 30.06 847 25.01 7 44.6 72 2.4 36.2
06:00 1018 30.06 847 25.01 7.1 44.8 72 2.4 36.4
06:05 1018 30.06 847 25.01 7.1 44.9 72 2.4 36.2
06:10 1018 30.06 847 25.01 7.3 45.1 71 2.4 36.3
06:15 1018 30.06 847 25.01 7.4 45.3 71 2.5 36.5
06:20 1018 30.06 847 25.01 7.3 45.1 72 2.6 36.6
06:25 1018 30.06 847 25.01 7.4 45.2 71 2.5 36.4
06:30 1018 30.06 847 25.01 7.6 45.7 71 2.6 36.7
06:35 1018 30.06 847 25.01 7.8 46.1 70 2.7 36.9
06:40 1018 30.06 847 25.01 8 46.5 69 2.7 36.9
06:45 1018 30.06 847 25.01 8.3 46.9 68 2.8 37.1
06:50 1018 30.06 847 25.01 8.6 47.5 67 2.8 37.1
06:55 1018 30.06 847 25.01 9 48.2 66 3.1 37.5
07:00 1018 30.06 847 25.01 9.1 48.4 66 3 37.5
07:05 1018 30.06 847 25.01 9.4 48.8 65 3.1 37.6
07:10 1018 30.06 848 25.04 9.7 49.4 65 3.5 38.2
07:15 1018 30.06 848 25.04 9.7 49.5 66 3.6 38.5
07:20 1018 30.06 848 25.04 9.5 49.2 66 3.5 38.3
07:25 1018 30.06 848 25.04 9.7 49.5 66 3.7 38.7
07:30 1018 30.06 848 25.04 10 49.9 65 3.7 38.6
07:35 1018 30.06 848 25.04 10.3 50.6 64 3.8 38.9
07:40 1018 30.06 848 25.04 10.4 50.7 65 4.1 39.4
07:45 1019 30.09 848 25.04 10.2 50.4 66 4.1 39.3
07:50 1019 30.09 848 25.04 10.1 50.3 65 3.9 38.9
07:55 1019 30.09 848 25.04 10.1 50.2 67 4.3 39.7
08:00 1019 30.09 848 25.04 10.1 50.2 66 4.1 39.3
08:05 1019 30.09 848 25.04 10.2 50.3 67 4.3 39.8
08:10 1019 30.09 848 25.04 10.3 50.5 68 4.6 40.3
08:15 1019 30.09 848 25.04 10.5 50.9 66 4.5 40.2
08:20 1019 30.09 848 25.04 10.8 51.4 63 4.1 39.4
08:25 1019 30.09 848 25.04 11.7 53 58 3.8 38.9
08:30 1019 30.09 848 25.04 12.9 55.1 54 3.8 38.9
08:35 1019 30.09 848 25.04 13.2 55.8 53 4 39.2
08:40 1019 30.09 848 25.04 13.7 56.7 52 4.1 39.5
08:45 1019 30.09 848 25.04 14.5 58.1 49 3.9 39
08:50 1019 30.09 848 25.04 15.1 59.2 49 4.5 40
08:55 1019 30.09 848 25.04 15 59 49 4.5 40
09:00 1019 30.09 848 25.04 14.8 58.7 51 4.9 40.8
09:05 1019 30.09 848 25.04 15 58.9 50 4.8 40.6
09:10 1019 30.09 848 25.04 15.3 59.6 48 4.6 40.2
09:15 1019 30.09 848 25.04 16.1 60.9 45 4.1 39.3
09:20 1019 30.09 848 25.04 16.3 61.4 45 4.4 39.9
09:25 1019 30.09 848 25.04 16.6 61.8 45 4.6 40.3
09:30 1019 30.09 848 25.04 17.1 62.8 44 4.9 40.8
09:35 1019 30.09 848 25.04 17 62.5 44 4.6 40.2
09:40 1019 30.09 848 25.04 17.4 63.3 42 4.4 40
09:45 1019 30.09 848 25.04 17.5 63.5 41 4.3 39.8
09:50 1019 30.09 848 25.04 17.6 63.7 41 4.5 40.1
09:55 1019 30.09 848 25.04 17.6 63.7 43 4.9 40.9
10:00 1019 30.09 848 25.04 17.2 62.9 44 4.9 40.9
10:05 1019 30.09 848 25.04 18.1 64.5 39 4.1 39.4
10:10 1019 30.09 848 25.04 17.9 64.2 43 5.2 41.4
10:15 1019 30.09 848 25.04 17.6 63.7 43 5.2 41.3
10:20 1019 30.09 848 25.04 18.3 65 40 4.5 40.1
10:25 1019 30.09 848 25.04 18.8 65.8 38 4.5 40
10:30 1019 30.09 848 25.04 19.4 66.8 40 5.4 41.8
10:35 1019 30.09 848 25.04 19.6 67.3 38 5.1 41.2
10:40 1019 30.09 848 25.04 20 68 37 4.9 40.8
10:45 1019 30.09 848 25.04 20.1 68.3 35 4.5 40.1
10:50 1019 30.09 848 25.04 19.6 67.3 36 4.4 40
10:55 1019 30.09 848 25.04 18.9 66 37 3.9 38.9
11:00 1019 30.09 848 25.04 19.2 66.6 38 4.8 40.6
11:05 1019 30.09 848 25.04 19.1 66.4 38 4.5 40.2
11:10 1019 30.09 848 25.04 19 66.3 39 4.9 40.9
11:15 1019 30.09 848 25.04 19.4 67 35 3.7 38.7
11:20 1019 30.09 848 25.04 19.7 67.4 36 4.2 39.5
11:25 1019 30.09 848 25.04 19.7 67.4 37 4.7 40.5
11:30 1019 30.09 848 25.04 19.7 67.4 35 4 39.2
11:35 1018 30.06 848 25.04 19.7 67.5 35 4.2 39.5
11:40 1018 30.06 848 25.04 20 68.1 35 4.3 39.7
11:45 1018 30.06 848 25.04 20.5 68.9 32 3.6 38.5
11:50 1018 30.06 848 25.04 19.9 67.8 34 3.9 38.9
11:55 1018 30.06 848 25.04 20.7 69.2 32 3.4 38
12:00 1018 30.06 848 25.04 20.7 69.3 33 4.2 39.6
12:05 1018 30.06 848 25.04 20.5 68.9 31 3 37.4
12:10 1018 30.06 848 25.04 21 69.8 32 3.9 39.1
12:15 1018 30.06 848 25.04 20.9 69.6 33 4.2 39.6
12:20 1018 30.06 848 25.04 20.6 69.1 32 3.6 38.5
12:25 1018 30.06 848 25.04 20.9 69.5 29 2.3 36.2
12:30 1018 30.06 848 25.04 21.2 70.2 29 2.7 36.8
12:35 1018 30.06 848 25.04 21.4 70.4 29 2.8 37
12:40 1018 30.06 848 25.04 21.4 70.6 30 3.1 37.6
12:45 1018 30.06 848 25.04 22.1 71.8 28 3.2 37.7
12:50 1018 30.06 848 25.04 22.1 71.9 28 3.1 37.7
12:55 1018 30.06 847 25.01 22.1 71.8 29 3.5 38.3
13:00 1018 30.06 847 25.01 22 71.7 27 2.4 36.3
13:05 1018 30.06 847 25.01 21.6 70.8 29 3.1 37.5
13:10 1018 30.06 847 25.01 21 69.9 29 2.7 36.9
13:15 1018 30.06 847 25.01 20.7 69.2 31 3.3 38
13:20 1018 30.06 847 25.01 21.5 70.8 29 2.9 37.3
13:25 1018 30.06 847 25.01 22.1 71.8 28 2.9 37.1
13:30 1018 30.06 847 25.01 20.9 69.6 30 2.9 37.2
13:35 1018 30.06 847 25.01 22.1 71.9 28 2.8 37
13:40 1018 30.06 847 25.01 22.2 72 27 2.8 37
13:45 1018 30.06 847 25.01 22.3 72.1 28 3.2 37.7
13:50 1018 30.06 847 25.01 22.1 71.7 28 3.1 37.6
13:55 1018 30.06 847 25.01 22.6 72.7 29 4.1 39.3
14:00 1018 30.06 847 25.01 22.3 72.1 28 3.3 38
14:05 1018 30.06 847 25.01 20.9 69.7 30 3 37.5
14:10 1018 30.06 847 25.01 21.3 70.3 29 2.7 36.8
14:15 1018 30.06 847 25.01 21.7 71.1 29 3 37.4
14:20 1018 30.06 847 25.01 22.8 73 27 3.2 37.7
14:25 1018 30.06 847 25.01 22.9 73.2 28 3.5 38.2
14:30 1018 30.06 847 25.01 22.8 73.1 27 3.2 37.8
14:35 1018 30.06 847 25.01 22.7 72.9 27 3.2 37.7
14:40 1018 30.06 847 25.01 23.2 73.7 27 3.5 38.3
14:45 1018 30.06 847 25.01 22.3 72.1 29 3.5 38.3
14:50 1018 30.06 847 25.01 21.9 71.3 27 2.4 36.3
14:55 1018 30.06 847 25.01 22.8 73.1 27 2.8 37.1
15:00 1018 30.06 847 25.01 22.5 72.4 28 3.3 37.9
15:05 1018 30.06 847 25.01 23.2 73.7 25 2.3 36.2
15:10 1018 30.06 847 25.01 24 75.2 26 3.6 38.5
15:15 1018 30.06 847 25.01 23.8 74.8 25 2.6 36.7
15:20 1018 30.06 847 25.01 23.7 74.6 25 2.5 36.5
15:25 1018 30.06 847 25.01 23.6 74.5 25 2.5 36.4
15:30 1018 30.06 847 25.01 23.7 74.6 26 3.3 38
15:35 1018 30.06 847 25.01 24.1 75.3 25 2.9 37.1
15:40 1018 30.06 847 25.01 24.2 75.5 24 2.8 37
15:45 1018 30.06 847 25.01 24.1 75.3 25 2.9 37.2
15:50 1018 30.06 847 25.01 23.8 74.9 25 3 37.5
15:55 1018 30.06 847 25.01 22.3 72.1 26 2 35.5
16:00 1018 30.06 847 25.01 22.4 72.3 25 1.8 35.2
16:05 1018 30.06 847 25.01 22.5 72.5 26 2.4 36.3
16:10 1018 30.06 847 25.01 23.8 74.8 24 2 35.6
16:15 1018 30.06 847 25.01 23.5 74.4 23 1.5 34.7
16:20 1018 30.06 847 25.01 24.2 75.5 23 1.9 35.5
16:25 1018 30.06 847 25.01 24.2 75.6 21 1 33.9
16:30 1017 30.03 847 25.01 24.5 76.1 21 0.7 33.3
16:35 1017 30.03 847 25.01 24.4 75.8 22 1.5 34.7
16:40 1017 30.03 847 25.01 24 75.2 22 1.1 34.1
16:45 1017 30.03 847 25.01 23.3 74 22 0.6 33
16:50 1017 30.03 847 25.01 23.2 73.7 22 0.3 32.6
16:55 1017 30.03 846 24.98 23.8 74.9 23 1.5 34.7
17:00 1017 30.03 846 24.98 24 75.1 22 1 33.8
17:05 1017 30.03 846 24.98 24.1 75.4 22 1.5 34.7
17:10 1017 30.03 846 24.98 23.5 74.4 24 2.1 35.7
17:15 1017 30.03 846 24.98 23.4 74.1 22 0.8 33.4
17:20 1017 30.03 846 24.98 24 75.1 22 0.9 33.6
17:25 1017 30.03 846 24.98 24.2 75.6 22 1.3 34.3
17:30 1017 30.03 846 24.98 24.2 75.5 21 0.9 33.6
17:35 1017 30.03 846 24.98 23.5 74.2 23 1.3 34.3
17:40 1017 30.03 846 24.98 23.4 74.1 24 1.7 35.1
17:45 1017 30.03 846 24.98 23.3 74 23 1.4 34.6
17:50 1017 30.03 846 24.98 22.9 73.3 23 1.2 34.1
17:55 1017 30.03 846 24.98 22.8 73 24 1.2 34.1
18:00 1017 30.03 846 24.98 22.9 73.3 24 1.7 35.1
18:05 1017 30.03 846 24.98 23.3 73.9 24 1.9 35.3
18:10 1017 30.03 846 24.98 23 73.3 24 1.6 34.8
18:15 1017 30.03 846 24.98 22.7 72.8 25 1.6 34.9
18:20 1017 30.03 846 24.98 22.3 72.1 25 1.4 34.6
18:25 1017 30.03 846 24.98 22.7 72.9 24 1.4 34.5
18:30 1017 30.03 846 24.98 23.1 73.6 24 1.4 34.5
18:35 1017 30.03 846 24.98 22.4 72.4 23 0.7 33.3
18:40 1017 30.03 846 24.98 22.3 72.1 23 0.3 32.5
18:45 1017 30.03 846 24.98 22.6 72.7 24 1.1 33.9
18:50 1017 30.03 846 24.98 22.4 72.4 25 1.7 35
18:55 1017 30.03 846 24.98 22 71.7 26 2 35.5
19:00 1017 30.03 846 24.98 22.2 72 25 1.5 34.7
19:05 1017 30.03 846 24.98 22.1 71.8 25 1.1 34
19:10 1017 30.03 846 24.98 22.2 72 24 1 33.8
19:15 1017 30.03 846 24.98 22.3 72.1 25 1.4 34.5
19:20 1017 30.03 846 24.98 22.5 72.4 24 1.3 34.4
19:25 1017 30.03 846 24.98 22.3 72.1 26 1.9 35.5
19:30 1017 30.03 846 24.98 21.9 71.3 25 0.9 33.6
19:35 1017 30.03 846 24.98 21.5 70.8 25 0.7 33.3
19:40 1017 30.03 846 24.98 21.5 70.7 25 1 33.9
19:45 1017 30.03 846 24.98 21.7 71 26 1.3 34.4
19:50 1017 30.03 846 24.98 21.4 70.5 25 0.7 33.2
19:55 1017 30.03 846 24.98 21.4 70.4 26 1 33.9
20:00 1017 30.03 846 24.98 21.5 70.6 26 1.3 34.4
20:05 1017 30.03 846 24.98 21.3 70.4 27 1.6 34.8
20:10 1017 30.03 846 24.98 21.3 70.4 27 1.7 35
20:15 1017 30.03 846 24.98 21.3 70.4 28 2 35.7
20:20 1017 30.03 846 24.98 21.3 70.4 28 2.3 36.1
20:25 1017 30.03 846 24.98 21.1 70 28 2.2 36
20:30 1017 30.03 846 24.98 20.9 69.6 31 3.5 38.3
20:35 1017 30.03 846 24.98 20.5 68.9 34 4.3 39.8
20:40 1017 30.03 846 24.98 20.1 68.2 33 3.6 38.4
20:45 1017 30.03 846 24.98 20.1 68.1 33 3.6 38.5
20:50 1017 30.03 846 24.98 19.9 67.7 35 4.1 39.3
20:55 1017 30.03 846 24.98 19.7 67.4 38 5.3 41.5
21:00 1017 30.03 846 24.98 19.3 66.7 40 5.4 41.8
21:05 1017 30.03 846 24.98 18.5 65.2 48 7.3 45.2
21:10 1017 30.03 846 24.98 17.7 63.8 52 7.8 46.1
21:15 1017 30.03 846 24.98 17.2 62.9 57 8.6 47.4
21:20 1017 30.03 846 24.98 16.8 62.2 58 8.5 47.3
21:25 1017 30.03 847 25.01 16.6 61.8 58 8.4 47.1
21:30 1017 30.03 847 25.01 16.2 61.2 59 8.3 46.9
21:35 1017 30.03 847 25.01 16 60.7 60 8.2 46.8
21:40 1018 30.06 847 25.01 15.9 60.7 60 8.2 46.8
21:45 1018 30.06 847 25.01 15.9 60.6 59 8.1 46.6
21:50 1018 30.06 847 25.01 15.8 60.5 60 8.2 46.8
21:55 1018 30.06 847 25.01 15.7 60.2 61 8.3 47
22:00 1018 30.06 847 25.01 15.5 59.8 63 8.5 47.2
22:05 1018 30.06 847 25.01 15.2 59.4 63 8.4 47.1
22:10 1018 30.06 847 25.01 15 59 64 8.4 47.1
22:15 1018 30.06 847 25.01 15 58.9 64 8.4 47.1
22:20 1018 30.06 847 25.01 14.8 58.7 65 8.5 47.3
22:25 1018 30.06 847 25.01 14.2 57.6 67 8.2 46.7
22:30 1018 30.06 847 25.01 14 57.1 66 7.8 46
22:35 1018 30.06 847 25.01 13.9 57.1 65 7.5 45.5
22:40 1018 30.06 847 25.01 13.7 56.7 68 7.9 46.3
22:45 1018 30.06 847 25.01 13.5 56.3 69 7.9 46.3
22:50 1018 30.06 847 25.01 13.5 56.3 71 8.3 47
22:55 1018 30.06 847 25.01 13.5 56.2 68 7.8 46.1
23:00 1018 30.06 847 25.01 13.3 55.9 69 7.8 46
23:05 1018 30.06 847 25.01 13.2 55.7 70 7.8 46.1
23:10 1018 30.06 847 25.01 13.1 55.5 71 8 46.4
23:15 1018 30.06 847 25.01 13.1 55.5 72 8.2 46.7
23:20 1018 30.06 847 25.01 13.1 55.5 71 8.1 46.5
23:25 1018 30.06 847 25.01 12.8 55.1 71 7.8 46.1
23:30 1018 30.06 847 25.01 12.8 55.1 71 7.8 46
23:35 1018 30.06 847 25.01 12.7 54.9 70 7.3 45.2
23:40 1018 30.06 847 25.01 12.5 54.4 66 6.4 43.6
23:45 1018 30.06 847 25.01 12.5 54.5 64 5.9 42.6
23:50 1018 30.06 847 25.01 12.8 55 63 6.1 42.9
23:55 1018 30.06 847 25.01 13 55.4 67 7.1 44.8
24:00 1018 30.06 847 25.01 13 55.4 69 7.5 45.6